sensor_id;sensor_type;location;lat;lon;timestamp;pressure;altitude;pressure_sealevel;temperature;humidity
64886;BME280;51514;52.206;5.114;2022-07-23T00:01:32;102008.66;;;17.63;73.88
64886;BME280;51514;52.206;5.114;2022-07-23T00:03:57;102001.84;;;17.59;74.07
64886;BME280;51514;52.206;5.114;2022-07-23T00:06:23;101997.44;;;17.58;74.02
64886;BME280;51514;52.206;5.114;2022-07-23T00:08:49;102004.94;;;17.56;74.29
64886;BME280;51514;52.206;5.114;2022-07-23T00:11:15;102013.09;;;17.56;73.91
64886;BME280;51514;52.206;5.114;2022-07-23T00:13:41;102006.31;;;17.52;74.09
64886;BME280;51514;52.206;5.114;2022-07-23T00:16:06;102000.19;;;17.50;74.17
64886;BME280;51514;52.206;5.114;2022-07-23T00:18:32;101996.97;;;17.46;74.26
64886;BME280;51514;52.206;5.114;2022-07-23T00:20:57;101991.00;;;17.43;74.10
64886;BME280;51514;52.206;5.114;2022-07-23T00:23:23;101998.53;;;17.41;73.67
64886;BME280;51514;52.206;5.114;2022-07-23T00:25:50;101995.13;;;17.39;73.61
64886;BME280;51514;52.206;5.114;2022-07-23T00:28:15;101991.03;;;17.35;73.89
64886;BME280;51514;52.206;5.114;2022-07-23T00:30:41;101988.47;;;17.33;73.32
64886;BME280;51514;52.206;5.114;2022-07-23T00:33:07;101994.78;;;17.34;73.54
64886;BME280;51514;52.206;5.114;2022-07-23T00:35:35;101989.50;;;17.32;73.40
64886;BME280;51514;52.206;5.114;2022-07-23T00:38:02;101990.72;;;17.30;73.56
64886;BME280;51514;52.206;5.114;2022-07-23T00:40:28;101988.16;;;17.28;73.65
64886;BME280;51514;52.206;5.114;2022-07-23T00:42:54;101987.66;;;17.25;73.54
64886;BME280;51514;52.206;5.114;2022-07-23T00:45:20;101984.25;;;17.23;73.90
64886;BME280;51514;52.206;5.114;2022-07-23T00:47:45;101982.53;;;17.22;73.92
64886;BME280;51514;52.206;5.114;2022-07-23T00:50:11;101972.84;;;17.19;73.99
64886;BME280;51514;52.206;5.114;2022-07-23T00:52:38;101980.34;;;17.17;73.78
64886;BME280;51514;52.206;5.114;2022-07-23T00:55:05;101978.81;;;17.14;73.78
64886;BME280;51514;52.206;5.114;2022-07-23T00:57:31;101974.72;;;17.10;74.03
64886;BME280;51514;52.206;5.114;2022-07-23T00:59:56;101968.44;;;17.10;73.98
64886;BME280;51514;52.206;5.114;2022-07-23T01:02:23;101969.44;;;17.09;74.26
64886;BME280;51514;52.206;5.114;2022-07-23T01:04:49;101968.81;;;17.07;74.50
64886;BME280;51514;52.206;5.114;2022-07-23T01:07:14;101971.69;;;17.05;74.45
64886;BME280;51514;52.206;5.114;2022-07-23T01:09:40;101969.13;;;17.04;74.32
64886;BME280;51514;52.206;5.114;2022-07-23T01:12:06;101955.69;;;17.02;74.37
64886;BME280;51514;52.206;5.114;2022-07-23T01:14:31;101955.00;;;17.00;74.49
64886;BME280;51514;52.206;5.114;2022-07-23T01:16:57;101948.22;;;16.96;74.36
64886;BME280;51514;52.206;5.114;2022-07-23T01:19:22;101958.44;;;16.94;74.63
64886;BME280;51514;52.206;5.114;2022-07-23T01:21:50;101960.63;;;16.91;75.00
64886;BME280;51514;52.206;5.114;2022-07-23T01:24:16;101957.06;;;16.90;75.30
64886;BME280;51514;52.206;5.114;2022-07-23T01:26:44;101954.50;;;16.89;75.14
64886;BME280;51514;52.206;5.114;2022-07-23T01:29:09;101940.56;;;16.84;75.54
64886;BME280;51514;52.206;5.114;2022-07-23T01:31:35;101947.22;;;16.81;75.61
64886;BME280;51514;52.206;5.114;2022-07-23T01:34:00;101960.16;;;16.79;75.38
64886;BME280;51514;52.206;5.114;2022-07-23T01:36:26;101956.72;;;16.77;75.48
64886;BME280;51514;52.206;5.114;2022-07-23T01:38:51;101954.00;;;16.77;75.46
64886;BME280;51514;52.206;5.114;2022-07-23T01:41:17;101939.91;;;16.73;75.50
64886;BME280;51514;52.206;5.114;2022-07-23T01:43:42;101948.25;;;16.72;75.44
64886;BME280;51514;52.206;5.114;2022-07-23T01:46:08;101947.56;;;16.70;75.29
64886;BME280;51514;52.206;5.114;2022-07-23T01:48:33;101949.59;;;16.68;75.36
64886;BME280;51514;52.206;5.114;2022-07-23T01:50:58;101944.16;;;16.68;75.32
64886;BME280;51514;52.206;5.114;2022-07-23T01:53:24;101960.66;;;16.66;74.97
64886;BME280;51514;52.206;5.114;2022-07-23T01:55:49;101962.53;;;16.66;74.97
64886;BME280;51514;52.206;5.114;2022-07-23T01:58:14;101953.72;;;16.64;75.12
64886;BME280;51514;52.206;5.114;2022-07-23T02:00:40;101951.00;;;16.64;75.57
64886;BME280;51514;52.206;5.114;2022-07-23T02:03:05;101947.72;;;16.60;75.49
64886;BME280;51514;52.206;5.114;2022-07-23T02:05:31;101947.88;;;16.59;75.59
64886;BME280;51514;52.206;5.114;2022-07-23T02:07:59;101945.31;;;16.57;75.43
64886;BME280;51514;52.206;5.114;2022-07-23T02:10:26;101955.53;;;16.55;75.13
64886;BME280;51514;52.206;5.114;2022-07-23T02:12:51;101951.31;;;16.53;75.00
64886;BME280;51514;52.206;5.114;2022-07-23T02:15:16;101945.50;;;16.48;75.29
64886;BME280;51514;52.206;5.114;2022-07-23T02:17:42;101950.44;;;16.44;75.33
64886;BME280;51514;52.206;5.114;2022-07-23T02:20:08;101946.03;;;16.43;75.35
64886;BME280;51514;52.206;5.114;2022-07-23T02:22:34;101943.47;;;16.41;75.52
64886;BME280;51514;52.206;5.114;2022-07-23T02:25:01;101939.38;;;16.37;75.88
64886;BME280;51514;52.206;5.114;2022-07-23T02:27:26;101943.97;;;16.37;75.95
64886;BME280;51514;52.206;5.114;2022-07-23T02:29:53;101946.84;;;16.35;76.24
64886;BME280;51514;52.206;5.114;2022-07-23T02:32:18;101949.75;;;16.34;76.22
64886;BME280;51514;52.206;5.114;2022-07-23T02:34:44;101947.22;;;16.32;76.50
64886;BME280;51514;52.206;5.114;2022-07-23T02:37:10;101955.19;;;16.34;76.01
64886;BME280;51514;52.206;5.114;2022-07-23T02:39:35;101959.13;;;16.31;76.20
64886;BME280;51514;52.206;5.114;2022-07-23T02:42:01;101958.44;;;16.29;76.17
64886;BME280;51514;52.206;5.114;2022-07-23T02:44:27;101963.88;;;16.29;76.32
64886;BME280;51514;52.206;5.114;2022-07-23T02:46:52;101962.16;;;16.28;76.18
64886;BME280;51514;52.206;5.114;2022-07-23T02:49:17;101972.53;;;16.25;76.65
64886;BME280;51514;52.206;5.114;2022-07-23T02:51:43;101965.75;;;16.21;77.01
64886;BME280;51514;52.206;5.114;2022-07-23T02:54:08;101966.59;;;16.21;77.08
64886;BME280;51514;52.206;5.114;2022-07-23T02:56:33;101972.03;;;16.21;76.90
64886;BME280;51514;52.206;5.114;2022-07-23T02:58:59;101973.75;;;16.22;76.97
64886;BME280;51514;52.206;5.114;2022-07-23T03:01:24;101968.63;;;16.19;76.55
64886;BME280;51514;52.206;5.114;2022-07-23T03:03:49;101975.41;;;16.15;77.03
64886;BME280;51514;52.206;5.114;2022-07-23T03:06:15;101978.81;;;16.09;77.24
64886;BME280;51514;52.206;5.114;2022-07-23T03:08:40;101980.47;;;16.02;77.26
64886;BME280;51514;52.206;5.114;2022-07-23T03:11:05;101985.28;;;16.00;77.19
64886;BME280;51514;52.206;5.114;2022-07-23T03:13:36;101984.41;;;15.99;77.21
64886;BME280;51514;52.206;5.114;2022-07-23T03:16:02;101988.00;;;16.00;77.08
64886;BME280;51514;52.206;5.114;2022-07-23T03:18:27;101982.34;;;15.93;77.23
64886;BME280;51514;52.206;5.114;2022-07-23T03:20:53;101984.19;;;15.85;77.41
64886;BME280;51514;52.206;5.114;2022-07-23T03:23:18;101978.72;;;15.77;77.53
64886;BME280;51514;52.206;5.114;2022-07-23T03:25:43;101981.47;;;15.77;78.06
64886;BME280;51514;52.206;5.114;2022-07-23T03:28:08;101978.38;;;15.80;77.71
64886;BME280;51514;52.206;5.114;2022-07-23T03:30:34;101980.94;;;15.81;77.66
64886;BME280;51514;52.206;5.114;2022-07-23T03:32:59;101981.78;;;15.82;78.35
64886;BME280;51514;52.206;5.114;2022-07-23T03:35:25;101977.75;;;15.86;78.38
64886;BME280;51514;52.206;5.114;2022-07-23T03:37:50;101980.47;;;15.86;78.25
64886;BME280;51514;52.206;5.114;2022-07-23T03:40:15;101973.63;;;15.82;78.49
64886;BME280;51514;52.206;5.114;2022-07-23T03:42:40;101976.19;;;15.83;78.66
64886;BME280;51514;52.206;5.114;2022-07-23T03:45:07;101974.81;;;15.79;79.01
64886;BME280;51514;52.206;5.114;2022-07-23T03:47:33;101967.50;;;15.80;78.87
64886;BME280;51514;52.206;5.114;2022-07-23T03:49:58;101965.47;;;15.82;79.00
64886;BME280;51514;52.206;5.114;2022-07-23T03:52:23;101970.59;;;15.85;78.66
64886;BME280;51514;52.206;5.114;2022-07-23T03:54:48;101962.13;;;15.88;78.54
64886;BME280;51514;52.206;5.114;2022-07-23T03:57:14;101959.72;;;15.93;78.47
64886;BME280;51514;52.206;5.114;2022-07-23T03:59:39;101951.41;;;15.94;78.40
64886;BME280;51514;52.206;5.114;2022-07-23T04:02:04;101949.53;;;15.95;78.40
64886;BME280;51514;52.206;5.114;2022-07-23T04:04:30;101946.81;;;15.95;78.59
64886;BME280;51514;52.206;5.114;2022-07-23T04:06:55;101957.22;;;15.99;78.30
64886;BME280;51514;52.206;5.114;2022-07-23T04:09:20;101965.19;;;16.01;77.87
64886;BME280;51514;52.206;5.114;2022-07-23T04:11:46;101965.69;;;16.04;78.37
64886;BME280;51514;52.206;5.114;2022-07-23T04:14:11;101960.44;;;16.03;78.17
64886;BME280;51514;52.206;5.114;2022-07-23T04:16:36;101973.19;;;16.02;77.94
64886;BME280;51514;52.206;5.114;2022-07-23T04:19:02;101974.03;;;16.03;77.66
64886;BME280;51514;52.206;5.114;2022-07-23T04:21:29;101980.47;;;16.02;77.70
64886;BME280;51514;52.206;5.114;2022-07-23T04:23:54;101966.88;;;16.02;78.04
64886;BME280;51514;52.206;5.114;2022-07-23T04:26:20;101981.00;;;16.05;78.18
64886;BME280;51514;52.206;5.114;2022-07-23T04:28:46;101981.72;;;16.08;78.21
64886;BME280;51514;52.206;5.114;2022-07-23T04:31:11;101976.09;;;16.09;78.10
64886;BME280;51514;52.206;5.114;2022-07-23T04:33:37;101971.34;;;16.11;78.20
64886;BME280;51514;52.206;5.114;2022-07-23T04:36:02;101969.28;;;16.13;77.83
64886;BME280;51514;52.206;5.114;2022-07-23T04:38:28;101973.38;;;16.17;77.70
64886;BME280;51514;52.206;5.114;2022-07-23T04:40:53;101972.38;;;16.18;78.21
64886;BME280;51514;52.206;5.114;2022-07-23T04:43:19;101978.50;;;16.20;78.59
64886;BME280;51514;52.206;5.114;2022-07-23T04:45:44;101985.47;;;16.23;78.76
64886;BME280;51514;52.206;5.114;2022-07-23T04:48:09;101980.88;;;16.23;78.70
64886;BME280;51514;52.206;5.114;2022-07-23T04:50:35;101989.72;;;16.25;78.97
64886;BME280;51514;52.206;5.114;2022-07-23T04:53:00;101992.44;;;16.25;79.03
64886;BME280;51514;52.206;5.114;2022-07-23T04:55:25;101992.28;;;16.27;79.69
64886;BME280;51514;52.206;5.114;2022-07-23T04:57:50;101990.94;;;16.31;80.10
64886;BME280;51514;52.206;5.114;2022-07-23T05:00:16;101990.41;;;16.35;80.08
64886;BME280;51514;52.206;5.114;2022-07-23T05:02:41;101988.03;;;16.40;80.21
64886;BME280;51514;52.206;5.114;2022-07-23T05:05:07;101979.56;;;16.43;80.75
64886;BME280;51514;52.206;5.114;2022-07-23T05:07:32;101986.50;;;16.46;80.72
64886;BME280;51514;52.206;5.114;2022-07-23T05:09:58;101990.75;;;16.49;80.70
64886;BME280;51514;52.206;5.114;2022-07-23T05:12:23;101984.66;;;16.55;80.71
64886;BME280;51514;52.206;5.114;2022-07-23T05:14:48;101985.72;;;16.62;80.73
64886;BME280;51514;52.206;5.114;2022-07-23T05:17:13;101994.03;;;16.68;80.65
64886;BME280;51514;52.206;5.114;2022-07-23T05:19:39;101992.34;;;16.75;80.53
64886;BME280;51514;52.206;5.114;2022-07-23T05:22:04;101989.78;;;16.82;80.61
64886;BME280;51514;52.206;5.114;2022-07-23T05:24:29;101996.06;;;16.91;80.95
64886;BME280;51514;52.206;5.114;2022-07-23T05:26:55;101991.44;;;16.99;79.95
64886;BME280;51514;52.206;5.114;2022-07-23T05:29:20;101988.72;;;17.07;79.87
64886;BME280;51514;52.206;5.114;2022-07-23T05:31:45;101984.97;;;17.17;79.15
64886;BME280;51514;52.206;5.114;2022-07-23T05:34:11;101994.81;;;17.26;78.86
64886;BME280;51514;52.206;5.114;2022-07-23T05:36:36;102002.97;;;17.34;78.56
64886;BME280;51514;52.206;5.114;2022-07-23T05:39:02;102003.47;;;17.37;77.45
64886;BME280;51514;52.206;5.114;2022-07-23T05:41:28;102007.72;;;17.40;77.64
64886;BME280;51514;52.206;5.114;2022-07-23T05:43:53;102007.53;;;17.41;77.52
64886;BME280;51514;52.206;5.114;2022-07-23T05:46:18;102011.94;;;17.42;77.82
64886;BME280;51514;52.206;5.114;2022-07-23T05:48:44;102010.94;;;17.43;77.39
64886;BME280;51514;52.206;5.114;2022-07-23T05:51:11;102018.25;;;17.51;76.81
64886;BME280;51514;52.206;5.114;2022-07-23T05:53:36;102010.03;;;17.59;76.03
64886;BME280;51514;52.206;5.114;2022-07-23T05:56:03;102017.19;;;17.68;75.80
64886;BME280;51514;52.206;5.114;2022-07-23T05:58:29;102024.31;;;17.77;75.51
64886;BME280;51514;52.206;5.114;2022-07-23T06:00:54;102022.59;;;17.84;74.75
64886;BME280;51514;52.206;5.114;2022-07-23T06:03:19;102014.34;;;17.93;74.26
64886;BME280;51514;52.206;5.114;2022-07-23T06:05:45;102018.06;;;18.00;74.11
64886;BME280;51514;52.206;5.114;2022-07-23T06:08:10;102019.88;;;18.07;73.59
64886;BME280;51514;52.206;5.114;2022-07-23T06:10:35;102012.69;;;18.14;73.42
64886;BME280;51514;52.206;5.114;2022-07-23T06:13:01;102019.97;;;18.22;72.91
64886;BME280;51514;52.206;5.114;2022-07-23T06:15:26;102016.91;;;18.25;71.04
64886;BME280;51514;52.206;5.114;2022-07-23T06:17:51;102017.50;;;18.35;71.61
64886;BME280;51514;52.206;5.114;2022-07-23T06:20:17;102018.81;;;18.47;71.68
64886;BME280;51514;52.206;5.114;2022-07-23T06:22:42;102026.59;;;18.58;71.40
64886;BME280;51514;52.206;5.114;2022-07-23T06:25:08;102027.38;;;18.67;70.92
64886;BME280;51514;52.206;5.114;2022-07-23T06:27:33;102023.53;;;18.76;70.40
64886;BME280;51514;52.206;5.114;2022-07-23T06:29:59;102028.94;;;18.84;69.86
64886;BME280;51514;52.206;5.114;2022-07-23T06:32:25;102018.31;;;18.89;68.42
64886;BME280;51514;52.206;5.114;2022-07-23T06:34:51;102036.50;;;18.97;68.24
64886;BME280;51514;52.206;5.114;2022-07-23T06:37:16;102034.72;;;19.04;67.52
64886;BME280;51514;52.206;5.114;2022-07-23T06:39:42;102035.34;;;19.14;68.07
64886;BME280;51514;52.206;5.114;2022-07-23T06:42:07;102039.78;;;19.30;67.94
64886;BME280;51514;52.206;5.114;2022-07-23T06:44:32;102038.47;;;19.41;66.64
64886;BME280;51514;52.206;5.114;2022-07-23T06:46:57;102041.97;;;19.49;65.95
64886;BME280;51514;52.206;5.114;2022-07-23T06:49:23;102040.47;;;19.47;66.35
64886;BME280;51514;52.206;5.114;2022-07-23T06:51:48;102036.41;;;19.43;66.11
64886;BME280;51514;52.206;5.114;2022-07-23T06:54:13;102046.00;;;19.39;65.50
64886;BME280;51514;52.206;5.114;2022-07-23T06:56:39;102036.94;;;19.38;65.85
64886;BME280;51514;52.206;5.114;2022-07-23T06:59:04;102037.44;;;19.42;65.88
64886;BME280;51514;52.206;5.114;2022-07-23T07:01:30;102046.97;;;19.46;66.06
64886;BME280;51514;52.206;5.114;2022-07-23T07:03:55;102045.44;;;19.43;65.32
64886;BME280;51514;52.206;5.114;2022-07-23T07:06:20;102044.97;;;19.40;64.96
64886;BME280;51514;52.206;5.114;2022-07-23T07:08:46;102042.22;;;19.40;65.28
64886;BME280;51514;52.206;5.114;2022-07-23T07:11:11;102036.56;;;19.41;64.25
64886;BME280;51514;52.206;5.114;2022-07-23T07:13:37;102039.81;;;19.45;64.54
64886;BME280;51514;52.206;5.114;2022-07-23T07:16:03;102045.38;;;19.51;63.91
64886;BME280;51514;52.206;5.114;2022-07-23T07:18:28;102035.84;;;19.62;63.72
64886;BME280;51514;52.206;5.114;2022-07-23T07:20:54;102060.38;;;19.70;64.25
64886;BME280;51514;52.206;5.114;2022-07-23T07:23:19;102053.88;;;19.71;62.87
64886;BME280;51514;52.206;5.114;2022-07-23T07:25:46;102052.94;;;19.79;63.03
64886;BME280;51514;52.206;5.114;2022-07-23T07:28:11;102052.47;;;19.90;63.61
64886;BME280;51514;52.206;5.114;2022-07-23T07:30:37;102058.94;;;20.03;63.68
64886;BME280;51514;52.206;5.114;2022-07-23T07:33:02;102058.19;;;20.10;62.33
64886;BME280;51514;52.206;5.114;2022-07-23T07:35:27;102066.94;;;20.20;62.90
64886;BME280;51514;52.206;5.114;2022-07-23T07:37:53;102060.03;;;20.24;61.04
64886;BME280;51514;52.206;5.114;2022-07-23T07:40:18;102074.19;;;20.27;61.11
64886;BME280;51514;52.206;5.114;2022-07-23T07:42:49;102063.81;;;20.37;60.77
64886;BME280;51514;52.206;5.114;2022-07-23T07:45:14;102065.38;;;20.47;60.52
64886;BME280;51514;52.206;5.114;2022-07-23T07:47:40;102069.31;;;20.59;60.33
64886;BME280;51514;52.206;5.114;2022-07-23T07:50:06;102066.00;;;20.63;59.06
64886;BME280;51514;52.206;5.114;2022-07-23T07:52:33;102066.66;;;20.65;59.16
64886;BME280;51514;52.206;5.114;2022-07-23T07:54:58;102063.59;;;20.75;60.58
64886;BME280;51514;52.206;5.114;2022-07-23T07:57:23;102065.00;;;20.92;61.11
64886;BME280;51514;52.206;5.114;2022-07-23T07:59:48;102063.22;;;21.06;59.46
64886;BME280;51514;52.206;5.114;2022-07-23T08:02:14;102061.38;;;21.13;59.40
64886;BME280;51514;52.206;5.114;2022-07-23T08:04:39;102059.69;;;21.12;57.75
64886;BME280;51514;52.206;5.114;2022-07-23T08:07:04;102075.09;;;21.13;59.52
64886;BME280;51514;52.206;5.114;2022-07-23T08:09:30;102071.19;;;21.22;58.11
64886;BME280;51514;52.206;5.114;2022-07-23T08:11:55;102068.09;;;21.32;58.62
64886;BME280;51514;52.206;5.114;2022-07-23T08:14:20;102066.00;;;21.34;57.52
64886;BME280;51514;52.206;5.114;2022-07-23T08:16:45;102070.72;;;21.40;56.12
64886;BME280;51514;52.206;5.114;2022-07-23T08:19:11;102073.69;;;21.45;56.83
64886;BME280;51514;52.206;5.114;2022-07-23T08:21:36;102071.63;;;21.54;57.67
64886;BME280;51514;52.206;5.114;2022-07-23T08:24:02;102077.38;;;21.59;55.70
64886;BME280;51514;52.206;5.114;2022-07-23T08:26:27;102072.97;;;21.64;55.13
64886;BME280;51514;52.206;5.114;2022-07-23T08:28:52;102070.94;;;21.73;55.87
64886;BME280;51514;52.206;5.114;2022-07-23T08:31:18;102079.00;;;21.81;55.23
64886;BME280;51514;52.206;5.114;2022-07-23T08:33:43;102068.03;;;21.88;53.96
64886;BME280;51514;52.206;5.114;2022-07-23T08:36:09;102069.78;;;21.95;53.97
64886;BME280;51514;52.206;5.114;2022-07-23T08:38:34;102073.03;;;22.05;54.21
64886;BME280;51514;52.206;5.114;2022-07-23T08:41:00;102072.44;;;22.16;53.58
64886;BME280;51514;52.206;5.114;2022-07-23T08:43:28;102075.38;;;22.15;52.28
64886;BME280;51514;52.206;5.114;2022-07-23T08:45:55;102075.19;;;22.16;53.34
64886;BME280;51514;52.206;5.114;2022-07-23T08:48:27;102077.75;;;22.25;53.83
64886;BME280;51514;52.206;5.114;2022-07-23T08:50:55;102083.50;;;22.36;53.67
64886;BME280;51514;52.206;5.114;2022-07-23T08:53:21;102084.38;;;22.50;53.38
64886;BME280;51514;52.206;5.114;2022-07-23T08:55:49;102079.09;;;22.62;53.30
64886;BME280;51514;52.206;5.114;2022-07-23T08:58:15;102081.66;;;22.63;51.47
64886;BME280;51514;52.206;5.114;2022-07-23T09:00:41;102078.09;;;22.69;51.66
64886;BME280;51514;52.206;5.114;2022-07-23T09:03:06;102079.81;;;22.77;50.58
64886;BME280;51514;52.206;5.114;2022-07-23T09:05:32;102077.72;;;22.85;50.25
64886;BME280;51514;52.206;5.114;2022-07-23T09:10:29;102087.25;;;23.03;51.01
64886;BME280;51514;52.206;5.114;2022-07-23T09:12:54;102086.00;;;23.12;51.72
64886;BME280;51514;52.206;5.114;2022-07-23T09:15:20;102090.41;;;23.06;49.83
64886;BME280;51514;52.206;5.114;2022-07-23T09:17:46;102080.91;;;23.09;50.12
64886;BME280;51514;52.206;5.114;2022-07-23T09:20:14;102077.31;;;23.21;50.87
64886;BME280;51514;52.206;5.114;2022-07-23T09:22:47;102082.59;;;23.36;52.10
64886;BME280;51514;52.206;5.114;2022-07-23T09:25:19;102083.63;;;23.48;50.74
64886;BME280;51514;52.206;5.114;2022-07-23T09:30:11;102083.44;;;23.63;49.83
64886;BME280;51514;52.206;5.114;2022-07-23T09:32:38;102081.94;;;23.60;50.37
64886;BME280;51514;52.206;5.114;2022-07-23T09:35:04;102084.91;;;23.65;50.92
64886;BME280;51514;52.206;5.114;2022-07-23T09:37:29;102084.03;;;23.72;50.25
64886;BME280;51514;52.206;5.114;2022-07-23T09:40:04;102094.63;;;23.75;49.88
64886;BME280;51514;52.206;5.114;2022-07-23T09:42:29;102092.91;;;23.80;49.82
64886;BME280;51514;52.206;5.114;2022-07-23T09:44:56;102094.59;;;23.88;48.94
64886;BME280;51514;52.206;5.114;2022-07-23T09:47:24;102095.41;;;23.95;49.79
64886;BME280;51514;52.206;5.114;2022-07-23T09:52:33;102088.97;;;24.14;49.44
64886;BME280;51514;52.206;5.114;2022-07-23T09:55:01;102094.09;;;24.11;48.01
64886;BME280;51514;52.206;5.114;2022-07-23T09:57:27;102090.47;;;24.17;48.50
64886;BME280;51514;52.206;5.114;2022-07-23T09:59:52;102089.41;;;24.24;49.44
64886;BME280;51514;52.206;5.114;2022-07-23T10:02:18;102088.78;;;24.22;47.90
64886;BME280;51514;52.206;5.114;2022-07-23T10:04:44;102086.03;;;24.22;47.69
64886;BME280;51514;52.206;5.114;2022-07-23T10:07:10;102090.72;;;24.22;46.71
64886;BME280;51514;52.206;5.114;2022-07-23T10:09:38;102091.53;;;24.16;47.27
64886;BME280;51514;52.206;5.114;2022-07-23T10:12:08;102091.94;;;24.19;47.66
64886;BME280;51514;52.206;5.114;2022-07-23T10:14:34;102085.56;;;24.25;47.33
64886;BME280;51514;52.206;5.114;2022-07-23T10:17:02;102090.66;;;24.28;47.22
64886;BME280;51514;52.206;5.114;2022-07-23T10:19:28;102086.00;;;24.29;47.12
64886;BME280;51514;52.206;5.114;2022-07-23T10:22:00;102084.72;;;24.25;47.53
64886;BME280;51514;52.206;5.114;2022-07-23T10:27:49;102087.66;;;24.36;47.70
64886;BME280;51514;52.206;5.114;2022-07-23T10:30:20;102088.47;;;24.44;47.71
64886;BME280;51514;52.206;5.114;2022-07-23T10:35:25;102087.94;;;24.60;48.23
64886;BME280;51514;52.206;5.114;2022-07-23T10:37:55;102090.22;;;24.69;45.99
64886;BME280;51514;52.206;5.114;2022-07-23T10:40:23;102087.28;;;24.64;45.69
64886;BME280;51514;52.206;5.114;2022-07-23T10:42:52;102084.53;;;24.64;45.91
64886;BME280;51514;52.206;5.114;2022-07-23T10:45:28;102083.41;;;24.72;47.50
64886;BME280;51514;52.206;5.114;2022-07-23T10:47:55;102075.94;;;24.79;46.06
64886;BME280;51514;52.206;5.114;2022-07-23T10:57:56;102071.53;;;25.03;46.29
64886;BME280;51514;52.206;5.114;2022-07-23T11:00:23;102074.00;;;25.11;48.22
64886;BME280;51514;52.206;5.114;2022-07-23T11:02:53;102062.25;;;25.22;47.88
64886;BME280;51514;52.206;5.114;2022-07-23T11:05:21;102067.25;;;25.32;47.05
64886;BME280;51514;52.206;5.114;2022-07-23T11:08:09;102063.38;;;25.39;44.67
64886;BME280;51514;52.206;5.114;2022-07-23T11:10:37;102063.38;;;25.39;46.46
64886;BME280;51514;52.206;5.114;2022-07-23T11:16:12;102072.72;;;25.63;46.13
64886;BME280;51514;52.206;5.114;2022-07-23T11:24:06;102071.97;;;25.93;45.35
64886;BME280;51514;52.206;5.114;2022-07-23T11:34:35;102072.72;;;26.00;42.26
64886;BME280;51514;52.206;5.114;2022-07-23T11:37:04;102071.66;;;26.01;42.00
64886;BME280;51514;52.206;5.114;2022-07-23T11:39:30;102072.72;;;26.00;42.03
64886;BME280;51514;52.206;5.114;2022-07-23T11:41:57;102082.47;;;26.02;41.85
64886;BME280;51514;52.206;5.114;2022-07-23T11:47:05;102087.28;;;26.07;42.39
64886;BME280;51514;52.206;5.114;2022-07-23T11:49:30;102071.53;;;26.07;41.75
64886;BME280;51514;52.206;5.114;2022-07-23T11:54:31;102071.31;;;26.09;42.32
64886;BME280;51514;52.206;5.114;2022-07-23T11:56:58;102065.50;;;26.17;43.08
64886;BME280;51514;52.206;5.114;2022-07-23T11:59:24;102072.84;;;26.23;44.28
64886;BME280;51514;52.206;5.114;2022-07-23T12:01:57;102070.28;;;26.28;42.86
64886;BME280;51514;52.206;5.114;2022-07-23T12:09:52;102063.63;;;26.47;43.78
64886;BME280;51514;52.206;5.114;2022-07-23T12:12:18;102060.97;;;26.52;42.57
64886;BME280;51514;52.206;5.114;2022-07-23T12:14:54;102053.41;;;26.48;40.12
64886;BME280;51514;52.206;5.114;2022-07-23T12:17:21;102054.81;;;26.50;40.97
64886;BME280;51514;52.206;5.114;2022-07-23T12:19:51;102048.38;;;26.57;41.40
64886;BME280;51514;52.206;5.114;2022-07-23T12:22:17;102054.97;;;26.56;40.17
64886;BME280;51514;52.206;5.114;2022-07-23T12:25:13;102045.25;;;26.65;41.97
64886;BME280;51514;52.206;5.114;2022-07-23T12:27:39;102046.94;;;26.66;42.16
64886;BME280;51514;52.206;5.114;2022-07-23T12:30:23;102043.94;;;26.67;42.98
64886;BME280;51514;52.206;5.114;2022-07-23T12:32:55;102045.53;;;26.75;41.63
64886;BME280;51514;52.206;5.114;2022-07-23T12:35:22;102047.94;;;26.83;41.85
64886;BME280;51514;52.206;5.114;2022-07-23T12:37:50;102047.25;;;26.87;42.41
64886;BME280;51514;52.206;5.114;2022-07-23T12:40:32;102049.69;;;26.96;40.92
64886;BME280;51514;52.206;5.114;2022-07-23T12:43:03;102038.75;;;27.01;40.92
64886;BME280;51514;52.206;5.114;2022-07-23T12:48:18;102031.28;;;27.01;39.65
64886;BME280;51514;52.206;5.114;2022-07-23T12:51:20;102036.47;;;26.98;39.66
64886;BME280;51514;52.206;5.114;2022-07-23T12:53:50;102039.00;;;26.99;40.58
64886;BME280;51514;52.206;5.114;2022-07-23T13:01:23;102041.16;;;26.97;40.86
64886;BME280;51514;52.206;5.114;2022-07-23T13:04:09;102033.63;;;26.86;41.51
64886;BME280;51514;52.206;5.114;2022-07-23T13:06:40;102033.16;;;26.89;41.13
64886;BME280;51514;52.206;5.114;2022-07-23T13:09:08;102034.72;;;26.85;38.04
64886;BME280;51514;52.206;5.114;2022-07-23T13:11:34;102032.44;;;26.82;38.35
64886;BME280;51514;52.206;5.114;2022-07-23T13:14:00;102038.69;;;26.77;37.33
64886;BME280;51514;52.206;5.114;2022-07-23T13:16:26;102026.75;;;26.77;39.61
64886;BME280;51514;52.206;5.114;2022-07-23T13:18:52;102026.66;;;26.83;39.61
64886;BME280;51514;52.206;5.114;2022-07-23T13:21:17;102032.31;;;26.88;38.92
64886;BME280;51514;52.206;5.114;2022-07-23T13:23:43;102024.25;;;26.87;39.96
64886;BME280;51514;52.206;5.114;2022-07-23T13:26:08;102030.63;;;26.87;39.77
64886;BME280;51514;52.206;5.114;2022-07-23T13:28:33;102030.25;;;26.84;37.81
64886;BME280;51514;52.206;5.114;2022-07-23T13:30:59;102032.31;;;26.88;39.62
64886;BME280;51514;52.206;5.114;2022-07-23T13:33:25;102031.00;;;26.91;38.67
64886;BME280;51514;52.206;5.114;2022-07-23T13:35:52;102034.84;;;26.90;39.09
64886;BME280;51514;52.206;5.114;2022-07-23T13:38:19;102026.31;;;26.92;40.94
64886;BME280;51514;52.206;5.114;2022-07-23T13:40:46;102024.44;;;26.92;40.47
64886;BME280;51514;52.206;5.114;2022-07-23T13:43:13;102024.72;;;26.84;40.68